sensor_id;sensor_type;location;lat;lon;timestamp;pressure;altitude;pressure_sealevel;temperature;humidity
42511;BME280;28141;51.120;17.114;2023-01-28T00:01:50;102330.84;;;24.33;27.30
42511;BME280;28141;51.120;17.114;2023-01-28T00:04:53;102331.89;;;24.32;27.18
42511;BME280;28141;51.120;17.114;2023-01-28T00:07:57;102332.09;;;24.31;27.14
42511;BME280;28141;51.120;17.114;2023-01-28T00:11:02;102332.47;;;24.28;27.34
42511;BME280;28141;51.120;17.114;2023-01-28T00:14:06;102329.51;;;24.29;27.48
42511;BME280;28141;51.120;17.114;2023-01-28T00:17:35;102330.77;;;24.27;27.40
42511;BME280;28141;51.120;17.114;2023-01-28T00:20:39;102333.13;;;24.30;27.47
42511;BME280;28141;51.120;17.114;2023-01-28T00:23:47;102330.77;;;24.27;27.38
42511;BME280;28141;51.120;17.114;2023-01-28T00:26:50;102322.84;;;24.24;27.54
42511;BME280;28141;51.120;17.114;2023-01-28T00:29:54;102317.77;;;24.27;27.24
42511;BME280;28141;51.120;17.114;2023-01-28T00:32:57;102324.36;;;24.26;27.37
42511;BME280;28141;51.120;17.114;2023-01-28T00:36:02;102319.88;;;24.25;27.55
42511;BME280;28141;51.120;17.114;2023-01-28T00:39:05;102317.77;;;24.27;27.44
42511;BME280;28141;51.120;17.114;2023-01-28T00:42:33;102322.06;;;24.30;27.42
42511;BME280;28141;51.120;17.114;2023-01-28T00:45:37;102318.63;;;24.28;27.42
42511;BME280;28141;51.120;17.114;2023-01-28T00:48:42;102312.28;;;24.34;27.61
42511;BME280;28141;51.120;17.114;2023-01-28T00:51:46;102313.37;;;24.33;27.31
42511;BME280;28141;51.120;17.114;2023-01-28T00:54:50;102309.52;;;24.34;27.40
42511;BME280;28141;51.120;17.114;2023-01-28T00:57:54;102314.76;;;24.22;27.36
42511;BME280;28141;51.120;17.114;2023-01-28T01:01:06;102306.70;;;24.27;27.47
42511;BME280;28141;51.120;17.114;2023-01-28T01:04:35;102313.67;;;24.23;27.43
42511;BME280;28141;51.120;17.114;2023-01-28T01:07:39;102304.90;;;24.20;27.43
42511;BME280;28141;51.120;17.114;2023-01-28T01:10:46;102310.44;;;24.20;27.68
42511;BME280;28141;51.120;17.114;2023-01-28T01:13:56;102321.12;;;24.23;27.47
42511;BME280;28141;51.120;17.114;2023-01-28T01:17:00;102320.84;;;24.18;27.47
42511;BME280;28141;51.120;17.114;2023-01-28T01:20:05;102328.95;;;24.19;27.59
42511;BME280;28141;51.120;17.114;2023-01-28T01:23:09;102329.04;;;24.26;27.53
42511;BME280;28141;51.120;17.114;2023-01-28T01:26:39;102329.91;;;24.26;27.45
42511;BME280;28141;51.120;17.114;2023-01-28T01:29:43;102329.04;;;24.26;27.47
42511;BME280;28141;51.120;17.114;2023-01-28T01:32:46;102328.85;;;24.27;27.28
42511;BME280;28141;51.120;17.114;2023-01-28T01:35:53;102335.91;;;24.30;27.41
42511;BME280;28141;51.120;17.114;2023-01-28T01:38:57;102337.93;;;24.21;27.24
42511;BME280;28141;51.120;17.114;2023-01-28T01:42:00;102350.53;;;24.24;27.20
42511;BME280;28141;51.120;17.114;2023-01-28T01:45:11;102352.91;;;24.27;27.46
42511;BME280;28141;51.120;17.114;2023-01-28T01:48:42;102361.42;;;24.25;27.44
42511;BME280;28141;51.120;17.114;2023-01-28T01:51:48;102352.05;;;24.26;27.30
42511;BME280;28141;51.120;17.114;2023-01-28T01:54:56;102358.45;;;24.27;27.44
42511;BME280;28141;51.120;17.114;2023-01-28T01:58:15;102357.12;;;24.23;27.30
42511;BME280;28141;51.120;17.114;2023-01-28T02:01:25;102356.73;;;24.26;27.42
42511;BME280;28141;51.120;17.114;2023-01-28T02:04:53;102358.83;;;24.24;27.43
42511;BME280;28141;51.120;17.114;2023-01-28T02:07:58;102360.09;;;24.21;27.41
42511;BME280;28141;51.120;17.114;2023-01-28T02:11:13;102358.47;;;24.12;27.60
42511;BME280;28141;51.120;17.114;2023-01-28T02:14:19;102363.05;;;24.20;27.71
42511;BME280;28141;51.120;17.114;2023-01-28T02:17:24;102372.91;;;24.22;27.47
42511;BME280;28141;51.120;17.114;2023-01-28T02:34:37;102378.07;;;24.11;27.62
42511;BME280;28141;51.120;17.114;2023-01-28T02:41:04;102374.51;;;24.17;27.48
42511;BME280;28141;51.120;17.114;2023-01-28T02:44:09;102368.72;;;24.12;27.71
42511;BME280;28141;51.120;17.114;2023-01-28T02:47:13;102370.69;;;24.18;27.60
42511;BME280;28141;51.120;17.114;2023-01-28T02:51:07;102373.17;;;24.13;27.54
42511;BME280;28141;51.120;17.114;2023-01-28T02:54:19;102376.16;;;24.11;27.44
42511;BME280;28141;51.120;17.114;2023-01-28T03:00:48;102375.02;;;24.06;27.79
42511;BME280;28141;51.120;17.114;2023-01-28T03:04:24;102373.59;;;24.10;27.62
42511;BME280;28141;51.120;17.114;2023-01-28T03:07:33;102371.49;;;24.12;27.58
42511;BME280;28141;51.120;17.114;2023-01-28T03:10:38;102370.82;;;24.10;27.30
42511;BME280;28141;51.120;17.114;2023-01-28T03:13:43;102380.43;;;24.14;27.60
42511;BME280;28141;51.120;17.114;2023-01-28T03:17:00;102375.31;;;24.11;27.36
42511;BME280;28141;51.120;17.114;2023-01-28T03:20:53;102384.56;;;24.03;27.59
42511;BME280;28141;51.120;17.114;2023-01-28T03:24:27;102381.99;;;24.01;27.64
42511;BME280;28141;51.120;17.114;2023-01-28T03:28:05;102389.66;;;23.99;27.70
42511;BME280;28141;51.120;17.114;2023-01-28T03:31:24;102373.43;;;23.96;27.65
42511;BME280;28141;51.120;17.114;2023-01-28T03:34:40;102379.54;;;23.92;27.88
42511;BME280;28141;51.120;17.114;2023-01-28T03:38:21;102383.45;;;23.97;27.75
42511;BME280;28141;51.120;17.114;2023-01-28T03:41:25;102376.08;;;24.05;27.59
42511;BME280;28141;51.120;17.114;2023-01-28T03:44:29;102374.03;;;24.13;27.34
42511;BME280;28141;51.120;17.114;2023-01-28T03:47:44;102374.16;;;24.05;27.49
42511;BME280;28141;51.120;17.114;2023-01-28T03:50:48;102378.16;;;24.02;27.79
42511;BME280;28141;51.120;17.114;2023-01-28T03:53:52;102387.62;;;24.08;27.45
42511;BME280;28141;51.120;17.114;2023-01-28T03:56:55;102386.38;;;24.11;27.55
42511;BME280;28141;51.120;17.114;2023-01-28T04:00:23;102388.48;;;24.09;27.54
42511;BME280;28141;51.120;17.114;2023-01-28T04:03:26;102386.58;;;24.09;27.42
42511;BME280;28141;51.120;17.114;2023-01-28T04:06:30;102388.10;;;24.12;27.56
42511;BME280;28141;51.120;17.114;2023-01-28T04:09:34;102384.66;;;24.10;27.63
42511;BME280;28141;51.120;17.114;2023-01-28T04:12:40;102389.53;;;24.08;27.55
42511;BME280;28141;51.120;17.114;2023-01-28T04:15:45;102390.20;;;24.10;27.62
42511;BME280;28141;51.120;17.114;2023-01-28T04:18:49;102393.83;;;24.10;27.55
42511;BME280;28141;51.120;17.114;2023-01-28T04:21:53;102398.22;;;24.05;27.36
42511;BME280;28141;51.120;17.114;2023-01-28T04:25:22;102399.68;;;24.00;27.51
42511;BME280;28141;51.120;17.114;2023-01-28T04:28:26;102396.91;;;24.00;27.61
42511;BME280;28141;51.120;17.114;2023-01-28T04:31:29;102398.60;;;24.01;27.51
42511;BME280;28141;51.120;17.114;2023-01-28T04:34:32;102397.49;;;23.96;27.47
42511;BME280;28141;51.120;17.114;2023-01-28T04:37:36;102406.14;;;24.08;27.54
42511;BME280;28141;51.120;17.114;2023-01-28T04:40:39;102407.98;;;24.00;27.57
42511;BME280;28141;51.120;17.114;2023-01-28T04:43:42;102410.89;;;24.14;27.36
42511;BME280;28141;51.120;17.114;2023-01-28T04:46:46;102411.68;;;24.08;27.59
42511;BME280;28141;51.120;17.114;2023-01-28T04:49:49;102409.68;;;24.01;27.76
42511;BME280;28141;51.120;17.114;2023-01-28T04:53:17;102421.16;;;23.98;27.51
42511;BME280;28141;51.120;17.114;2023-01-28T04:56:21;102415.63;;;23.98;27.51
42511;BME280;28141;51.120;17.114;2023-01-28T04:59:24;102419.45;;;23.97;27.56
42511;BME280;28141;51.120;17.114;2023-01-28T05:02:27;102421.16;;;23.98;27.41
42511;BME280;28141;51.120;17.114;2023-01-28T05:05:31;102424.13;;;23.97;27.45
42511;BME280;28141;51.120;17.114;2023-01-28T05:08:34;102426.21;;;23.95;27.58
42511;BME280;28141;51.120;17.114;2023-01-28T05:11:38;102428.42;;;23.99;27.45
42511;BME280;28141;51.120;17.114;2023-01-28T05:14:41;102430.52;;;23.97;27.52
42511;BME280;28141;51.120;17.114;2023-01-28T05:17:44;102433.47;;;23.96;27.54
42511;BME280;28141;51.120;17.114;2023-01-28T05:21:13;102441.30;;;23.92;27.58
42511;BME280;28141;51.120;17.114;2023-01-28T05:24:17;102441.58;;;23.97;27.65
42511;BME280;28141;51.120;17.114;2023-01-28T05:27:20;102444.60;;;24.02;27.60
42511;BME280;28141;51.120;17.114;2023-01-28T05:30:24;102447.13;;;23.97;27.56
42511;BME280;28141;51.120;17.114;2023-01-28T05:33:27;102448.37;;;23.95;27.57
42511;BME280;28141;51.120;17.114;2023-01-28T05:36:30;102447.98;;;23.98;27.50
42511;BME280;28141;51.120;17.114;2023-01-28T05:39:33;102451.61;;;23.98;27.16
42511;BME280;28141;51.120;17.114;2023-01-28T05:42:37;102448.37;;;23.95;27.62
42511;BME280;28141;51.120;17.114;2023-01-28T05:45:40;102445.02;;;23.99;27.63
42511;BME280;28141;51.120;17.114;2023-01-28T05:49:08;102455.32;;;23.91;27.53
42511;BME280;28141;51.120;17.114;2023-01-28T05:52:15;102453.64;;;23.90;27.39
42511;BME280;28141;51.120;17.114;2023-01-28T05:55:18;102441.70;;;23.89;27.56
42511;BME280;28141;51.120;17.114;2023-01-28T05:58:22;102449.22;;;23.95;27.83
42511;BME280;28141;51.120;17.114;2023-01-28T06:01:25;102458.01;;;23.84;27.54
42511;BME280;28141;51.120;17.114;2023-01-28T06:04:28;102451.91;;;23.89;27.42
42511;BME280;28141;51.120;17.114;2023-01-28T06:07:32;102461.45;;;23.86;27.83
42511;BME280;28141;51.120;17.114;2023-01-28T06:10:35;102458.31;;;23.89;27.60
42511;BME280;28141;51.120;17.114;2023-01-28T06:14:05;102465.34;;;23.92;27.54
42511;BME280;28141;51.120;17.114;2023-01-28T06:17:08;102462.38;;;23.93;27.54
42511;BME280;28141;51.120;17.114;2023-01-28T06:20:12;102463.84;;;23.89;27.37
42511;BME280;28141;51.120;17.114;2023-01-28T06:23:15;102464.41;;;23.85;27.49
42511;BME280;28141;51.120;17.114;2023-01-28T06:26:18;102467.25;;;23.91;27.73
42511;BME280;28141;51.120;17.114;2023-01-28T06:29:22;102471.18;;;23.82;27.54
42511;BME280;28141;51.120;17.114;2023-01-28T06:32:25;102476.34;;;23.85;27.73
42511;BME280;28141;51.120;17.114;2023-01-28T06:35:29;102467.47;;;23.90;27.52
42511;BME280;28141;51.120;17.114;2023-01-28T06:38:32;102479.78;;;23.87;27.62
42511;BME280;28141;51.120;17.114;2023-01-28T06:42:01;102482.55;;;23.87;27.53
42511;BME280;28141;51.120;17.114;2023-01-28T06:45:05;102487.41;;;23.85;27.56
42511;BME280;28141;51.120;17.114;2023-01-28T06:48:09;102491.23;;;23.84;27.58
42511;BME280;28141;51.120;17.114;2023-01-28T06:51:33;102498.29;;;23.87;27.56
42511;BME280;28141;51.120;17.114;2023-01-28T06:54:37;102497.13;;;23.81;27.56
42511;BME280;28141;51.120;17.114;2023-01-28T06:57:41;102501.06;;;23.87;27.54
42511;BME280;28141;51.120;17.114;2023-01-28T07:00:46;102498.85;;;23.82;27.52
42511;BME280;28141;51.120;17.114;2023-01-28T07:03:50;102502.30;;;23.84;27.46
42511;BME280;28141;51.120;17.114;2023-01-28T07:06:53;102509.92;;;23.82;27.46
42511;BME280;28141;51.120;17.114;2023-01-28T07:09:56;102514.04;;;23.86;27.47
42511;BME280;28141;51.120;17.114;2023-01-28T07:13:00;102518.23;;;23.82;27.50
42511;BME280;28141;51.120;17.114;2023-01-28T07:16:27;102525.22;;;23.78;27.57
42511;BME280;28141;51.120;17.114;2023-01-28T07:19:31;102524.44;;;23.84;27.31
42511;BME280;28141;51.120;17.114;2023-01-28T07:22:35;102531.70;;;23.85;27.80
42511;BME280;28141;51.120;17.114;2023-01-28T07:25:41;102541.71;;;23.86;27.54
42511;BME280;28141;51.120;17.114;2023-01-28T07:28:44;102534.09;;;23.88;27.67
42511;BME280;28141;51.120;17.114;2023-01-28T07:31:48;102534.09;;;23.88;27.50
42511;BME280;28141;51.120;17.114;2023-01-28T07:34:51;102530.64;;;23.86;27.14
42511;BME280;28141;51.120;17.114;2023-01-28T07:37:57;102535.88;;;23.81;27.36
42511;BME280;28141;51.120;17.114;2023-01-28T07:41:25;102547.92;;;23.88;27.47
42511;BME280;28141;51.120;17.114;2023-01-28T07:44:30;102533.68;;;23.91;27.40
42511;BME280;28141;51.120;17.114;2023-01-28T07:47:34;102539.44;;;23.90;27.58
42511;BME280;28141;51.120;17.114;2023-01-28T07:50:37;102534.36;;;23.93;27.14
42511;BME280;28141;51.120;17.114;2023-01-28T07:53:42;102527.50;;;23.89;27.37
42511;BME280;28141;51.120;17.114;2023-01-28T07:56:45;102528.37;;;23.90;27.16
42511;BME280;28141;51.120;17.114;2023-01-28T07:59:49;102541.04;;;23.84;27.47
42511;BME280;28141;51.120;17.114;2023-01-28T08:02:57;102546.08;;;23.81;27.37
42511;BME280;28141;51.120;17.114;2023-01-28T08:06:27;102552.88;;;23.78;27.46
42511;BME280;28141;51.120;17.114;2023-01-28T08:09:31;102545.63;;;23.77;27.53
42511;BME280;28141;51.120;17.114;2023-01-28T08:12:36;102548.85;;;23.81;27.82
42511;BME280;28141;51.120;17.114;2023-01-28T08:15:40;102550.76;;;23.80;27.34
42511;BME280;28141;51.120;17.114;2023-01-28T08:18:44;102551.08;;;23.85;27.27
42511;BME280;28141;51.120;17.114;2023-01-28T08:21:47;102562.41;;;23.90;27.58
42511;BME280;28141;51.120;17.114;2023-01-28T08:24:51;102554.95;;;23.91;27.32
42511;BME280;28141;51.120;17.114;2023-01-28T08:27:54;102554.78;;;23.92;27.26
42511;BME280;28141;51.120;17.114;2023-01-28T08:31:22;102560.31;;;23.92;27.28
42511;BME280;28141;51.120;17.114;2023-01-28T08:34:26;102558.33;;;23.86;27.41
42511;BME280;28141;51.120;17.114;2023-01-28T08:37:29;102560.03;;;23.87;27.38
42511;BME280;28141;51.120;17.114;2023-01-28T08:40:33;102562.32;;;23.84;27.31
42511;BME280;28141;51.120;17.114;2023-01-28T08:43:37;102565.95;;;23.84;27.25
42511;BME280;28141;51.120;17.114;2023-01-28T08:46:40;102564.91;;;23.85;27.24
42511;BME280;28141;51.120;17.114;2023-01-28T08:49:44;102564.23;;;23.83;27.28
42511;BME280;28141;51.120;17.114;2023-01-28T08:52:48;102563.56;;;23.81;27.33
42511;BME280;28141;51.120;17.114;2023-01-28T08:56:21;102568.73;;;23.84;27.37
42511;BME280;28141;51.120;17.114;2023-01-28T08:59:24;102560.98;;;23.80;27.49
42511;BME280;28141;51.120;17.114;2023-01-28T09:02:28;102566.32;;;23.81;27.23
42511;BME280;28141;51.120;17.114;2023-01-28T09:05:32;102562.04;;;23.93;27.47
42511;BME280;28141;51.120;17.114;2023-01-28T09:08:36;102561.09;;;23.86;27.17
42511;BME280;28141;51.120;17.114;2023-01-28T09:11:40;102557.85;;;23.97;27.36
42511;BME280;28141;51.120;17.114;2023-01-28T09:14:43;102558.79;;;24.05;26.96
42511;BME280;28141;51.120;17.114;2023-01-28T09:17:47;102565.00;;;24.07;27.27
42511;BME280;28141;51.120;17.114;2023-01-28T09:20:50;102573.68;;;24.03;27.16
42511;BME280;28141;51.120;17.114;2023-01-28T09:24:18;102582.18;;;24.02;27.11
42511;BME280;28141;51.120;17.114;2023-01-28T09:27:22;102581.71;;;23.98;26.81
42511;BME280;28141;51.120;17.114;2023-01-28T09:30:26;102582.27;;;23.94;27.28
42511;BME280;28141;51.120;17.114;2023-01-28T09:33:30;102583.70;;;24.05;27.10
42511;BME280;28141;51.120;17.114;2023-01-28T09:36:34;102588.49;;;23.96;27.25
42511;BME280;28141;51.120;17.114;2023-01-28T09:39:38;102589.16;;;23.98;27.28
42511;BME280;28141;51.120;17.114;2023-01-28T09:42:51;102587.26;;;23.98;27.09
42511;BME280;28141;51.120;17.114;2023-01-28T09:46:20;102598.39;;;23.90;27.19
42511;BME280;28141;51.120;17.114;2023-01-28T09:49:50;102586.57;;;23.96;27.13
42511;BME280;28141;51.120;17.114;2023-01-28T09:52:38;102601.56;;;23.87;27.10
42511;BME280;28141;51.120;17.114;2023-01-28T09:55:50;102596.41;;;23.99;27.01
42511;BME280;28141;51.120;17.114;2023-01-28T09:59:05;102596.23;;;24.00;27.08
42511;BME280;28141;51.120;17.114;2023-01-28T10:09:15;102600.33;;;23.90;27.29
42511;BME280;28141;51.120;17.114;2023-01-28T10:12:43;102593.93;;;23.89;27.17
42511;BME280;28141;51.120;17.114;2023-01-28T10:16:15;102597.94;;;23.87;27.20
42511;BME280;28141;51.120;17.114;2023-01-28T10:19:27;102601.38;;;23.89;27.23
42511;BME280;28141;51.120;17.114;2023-01-28T10:22:40;102597.34;;;23.91;27.28
42511;BME280;28141;51.120;17.114;2023-01-28T10:25:47;102593.63;;;23.84;27.08
42511;BME280;28141;51.120;17.114;2023-01-28T10:29:18;102588.41;;;23.89;27.21
42511;BME280;28141;51.120;17.114;2023-01-28T10:32:31;102592.02;;;24.05;27.32
42511;BME280;28141;51.120;17.114;2023-01-28T10:35:40;102591.81;;;23.91;26.94
42511;BME280;28141;51.120;17.114;2023-01-28T10:38:45;102592.02;;;24.05;27.09
42511;BME280;28141;51.120;17.114;2023-01-28T10:41:49;102594.52;;;23.99;26.78
42511;BME280;28141;51.120;17.114;2023-01-28T10:44:56;102597.09;;;24.01;26.93
42511;BME280;28141;51.120;17.114;2023-01-28T10:48:29;102602.71;;;24.08;26.93
42511;BME280;28141;51.120;17.114;2023-01-28T10:51:36;102594.05;;;24.11;26.76
42511;BME280;28141;51.120;17.114;2023-01-28T10:54:40;102592.31;;;24.10;26.88
42511;BME280;28141;51.120;17.114;2023-01-28T10:57:44;102593.25;;;24.17;26.46
42511;BME280;28141;51.120;17.114;2023-01-28T11:00:56;102592.99;;;24.12;26.73
42511;BME280;28141;51.120;17.114;2023-01-28T11:04:00;102595.35;;;24.15;26.73
42511;BME280;28141;51.120;17.114;2023-01-28T11:10:46;102604.71;;;23.99;26.79
42511;BME280;28141;51.120;17.114;2023-01-28T11:13:51;102602.41;;;24.02;26.53
42511;BME280;28141;51.120;17.114;2023-01-28T11:16:57;102601.56;;;24.17;26.81
42511;BME280;28141;51.120;17.114;2023-01-28T11:20:11;102593.25;;;24.17;26.73
42511;BME280;28141;51.120;17.114;2023-01-28T11:23:22;102582.51;;;24.22;26.69
42511;BME280;28141;51.120;17.114;2023-01-28T11:26:56;102591.27;;;24.11;26.74
42511;BME280;28141;51.120;17.114;2023-01-28T11:30:01;102580.56;;;24.08;26.87
42511;BME280;28141;51.120;17.114;2023-01-28T11:33:16;102578.16;;;24.05;26.64
42511;BME280;28141;51.120;17.114;2023-01-28T11:36:26;102587.93;;;24.00;26.75
42511;BME280;28141;51.120;17.114;2023-01-28T11:39:31;102584.57;;;24.05;26.85
42511;BME280;28141;51.120;17.114;2023-01-28T11:42:34;102594.23;;;24.09;26.92
42511;BME280;28141;51.120;17.114;2023-01-28T11:49:26;102584.57;;;24.20;26.98
42511;BME280;28141;51.120;17.114;2023-01-28T12:02:52;102596.89;;;24.17;26.74
42511;BME280;28141;51.120;17.114;2023-01-28T12:13:00;102590.59;;;24.09;26.67
42511;BME280;28141;51.120;17.114;2023-01-28T12:26:22;102595.27;;;24.23;26.49
42511;BME280;28141;51.120;17.114;2023-01-28T12:32:54;102590.11;;;24.20;26.53
42511;BME280;28141;51.120;17.114;2023-01-28T12:39:50;102589.93;;;24.21;26.36
42511;BME280;28141;51.120;17.114;2023-01-28T12:49:29;102581.79;;;24.05;26.49
42511;BME280;28141;51.120;17.114;2023-01-28T12:56:22;102599.57;;;24.11;26.57
42511;BME280;28141;51.120;17.114;2023-01-28T12:59:37;102589.24;;;24.05;26.53
42511;BME280;28141;51.120;17.114;2023-01-28T13:02:46;102603.27;;;24.03;26.46
42511;BME280;28141;51.120;17.114;2023-01-28T13:09:35;102613.59;;;23.94;26.58
42511;BME280;28141;51.120;17.114;2023-01-28T13:12:40;102598.33;;;23.98;26.40
42511;BME280;28141;51.120;17.114;2023-01-28T13:15:44;102601.94;;;24.14;26.39
42511;BME280;28141;51.120;17.114;2023-01-28T13:18:49;102600.82;;;24.23;26.41
42511;BME280;28141;51.120;17.114;2023-01-28T13:21:52;102602.54;;;24.24;26.27
42511;BME280;28141;51.120;17.114;2023-01-28T13:25:25;102615.78;;;24.14;26.26
42511;BME280;28141;51.120;17.114;2023-01-28T13:28:32;102600.63;;;24.10;26.39
42511;BME280;28141;51.120;17.114;2023-01-28T13:31:38;102598.22;;;24.07;25.83
42511;BME280;28141;51.120;17.114;2023-01-28T13:34:42;102596.97;;;23.94;26.65
42511;BME280;28141;51.120;17.114;2023-01-28T13:37:48;102602.88;;;23.91;26.48
42511;BME280;28141;51.120;17.114;2023-01-28T13:40:59;102601.09;;;23.98;26.65
42511;BME280;28141;51.120;17.114;2023-01-28T13:44:32;102616.34;;;23.94;26.41
42511;BME280;28141;51.120;17.114;2023-01-28T13:47:36;102617.88;;;23.97;26.11
42511;BME280;28141;51.120;17.114;2023-01-28T13:50:42;102610.13;;;23.92;26.40
42511;BME280;28141;51.120;17.114;2023-01-28T13:57:15;102612.23;;;23.90;26.32
42511;BME280;28141;51.120;17.114;2023-01-28T14:00:28;102622.39;;;23.98;26.20
42511;BME280;28141;51.120;17.114;2023-01-28T14:10:37;102620.16;;;23.79;26.35
42511;BME280;28141;51.120;17.114;2023-01-28T14:17:33;102643.53;;;23.76;26.54
42511;BME280;28141;51.120;17.114;2023-01-28T14:20:43;102648.30;;;23.82;26.23
42511;BME280;28141;51.120;17.114;2023-01-28T14:23:52;102645.72;;;23.81;26.30
42511;BME280;28141;51.120;17.114;2023-01-28T14:30:53;102643.53;;;23.76;26.42
42511;BME280;28141;51.120;17.114;2023-01-28T14:37:11;102642.93;;;23.66;26.35
42511;BME280;28141;51.120;17.114;2023-01-28T14:40:15;102648.20;;;23.76;26.39
42511;BME280;28141;51.120;17.114;2023-01-28T14:43:21;102654.69;;;23.68;26.61
42511;BME280;28141;51.120;17.114;2023-01-28T14:46:59;102653.61;;;23.69;26.35
42511;BME280;28141;51.120;17.114;2023-01-28T15:00:25;102663.83;;;23.46;26.54
42511;BME280;28141;51.120;17.114;2023-01-28T15:03:29;102662.46;;;23.42;26.57
42511;BME280;28141;51.120;17.114;2023-01-28T15:06:34;102664.87;;;23.45;26.38
42511;BME280;28141;51.120;17.114;2023-01-28T15:09:38;102667.64;;;23.45;26.42
42511;BME280;28141;51.120;17.114;2023-01-28T15:12:45;102668.97;;;23.49;26.35
42511;BME280;28141;51.120;17.114;2023-01-28T15:15:50;102674.17;;;23.52;26.29
42511;BME280;28141;51.120;17.114;2023-01-28T15:19:32;102685.48;;;23.65;26.22
42511;BME280;28141;51.120;17.114;2023-01-28T15:22:38;102677.19;;;23.65;26.26
42511;BME280;28141;51.120;17.114;2023-01-28T15:25:44;102672.98;;;23.69;26.06
42511;BME280;28141;51.120;17.114;2023-01-28T15:28:49;102672.02;;;23.62;25.87
42511;BME280;28141;51.120;17.114;2023-01-28T15:31:52;102672.77;;;23.56;26.02
42511;BME280;28141;51.120;17.114;2023-01-28T15:34:59;102681.08;;;23.48;26.21
42511;BME280;28141;51.120;17.114;2023-01-28T15:38:03;102686.44;;;23.49;26.43
42511;BME280;28141;51.120;17.114;2023-01-28T15:41:37;102686.74;;;23.32;26.21
42511;BME280;28141;51.120;17.114;2023-01-28T15:44:44;102691.95;;;23.26;26.36
42511;BME280;28141;51.120;17.114;2023-01-28T15:47:49;102686.67;;;23.40;26.33
42511;BME280;28141;51.120;17.114;2023-01-28T15:51:03;102687.26;;;23.35;25.85
42511;BME280;28141;51.120;17.114;2023-01-28T15:54:09;102697.12;;;23.29;25.88
42511;BME280;28141;51.120;17.114;2023-01-28T15:57:40;102709.63;;;23.17;26.26
42511;BME280;28141;51.120;17.114;2023-01-28T16:00:44;102709.81;;;23.16;26.67
42511;BME280;28141;51.120;17.114;2023-01-28T16:07:04;102709.52;;;23.11;26.16
42511;BME280;28141;51.120;17.114;2023-01-28T16:13:49;102698.22;;;23.20;26.37
42511;BME280;28141;51.120;17.114;2023-01-28T16:16:54;102700.24;;;23.26;26.50
42511;BME280;28141;51.120;17.114;2023-01-28T16:20:07;102698.85;;;23.30;26.68
42511;BME280;28141;51.120;17.114;2023-01-28T16:23:20;102701.28;;;23.25;26.16
42511;BME280;28141;51.120;17.114;2023-01-28T16:26:27;102704.45;;;23.22;26.31
42511;BME280;28141;51.120;17.114;2023-01-28T16:29:58;102698.90;;;23.22;26.30
42511;BME280;28141;51.120;17.114;2023-01-28T16:33:01;102704.02;;;23.34;25.99
42511;BME280;28141;51.120;17.114;2023-01-28T16:36:07;102707.95;;;23.39;25.58
42511;BME280;28141;51.120;17.114;2023-01-28T16:39:11;102711.76;;;23.38;26.01
42511;BME280;28141;51.120;17.114;2023-01-28T16:42:14;102706.23;;;23.38;26.20
42511;BME280;28141;51.120;17.114;2023-01-28T16:45:21;102708.53;;;23.26;25.98
42511;BME280;28141;51.120;17.114;2023-01-28T16:48:25;102713.89;;;23.28;26.25
42511;BME280;28141;51.120;17.114;2023-01-28T16:51:30;102713.72;;;23.29;25.84
42511;BME280;28141;51.120;17.114;2023-01-28T16:55:00;102705.23;;;23.31;25.88
42511;BME280;28141;51.120;17.114;2023-01-28T16:58:04;102707.47;;;23.36;25.95
42511;BME280;28141;51.120;17.114;2023-01-28T17:01:07;102714.84;;;23.43;25.55
42511;BME280;28141;51.120;17.114;2023-01-28T17:04:13;102708.12;;;23.38;25.94
42511;BME280;28141;51.120;17.114;2023-01-28T17:07:17;102704.13;;;23.40;25.73
42511;BME280;28141;51.120;17.114;2023-01-28T17:10:20;102700.50;;;23.40;25.69
42511;BME280;28141;51.120;17.114;2023-01-28T17:13:24;102696.41;;;23.36;25.65
42511;BME280;28141;51.120;17.114;2023-01-28T17:16:28;102703.95;;;23.42;26.12
42511;BME280;28141;51.120;17.114;2023-01-28T17:19:31;102708.98;;;23.38;25.56
42511;BME280;28141;51.120;17.114;2023-01-28T17:22:58;102709.16;;;23.37;25.74
42511;BME280;28141;51.120;17.114;2023-01-28T17:26:06;102707.47;;;23.36;25.81
42511;BME280;28141;51.120;17.114;2023-01-28T17:29:10;102714.94;;;23.27;25.75
42511;BME280;28141;51.120;17.114;2023-01-28T17:32:13;102710.27;;;23.27;25.71
42511;BME280;28141;51.120;17.114;2023-01-28T17:35:17;102715.32;;;23.24;25.99
42511;BME280;28141;51.120;17.114;2023-01-28T17:38:20;102726.86;;;23.27;25.83
42511;BME280;28141;51.120;17.114;2023-01-28T17:41:23;102729.77;;;23.34;25.39
42511;BME280;28141;51.120;17.114;2023-01-28T17:44:27;102720.05;;;23.38;25.58
42511;BME280;28141;51.120;17.114;2023-01-28T17:47:56;102737.83;;;23.44;25.58
42511;BME280;28141;51.120;17.114;2023-01-28T17:50:59;102731.97;;;23.39;25.68
42511;BME280;28141;51.120;17.114;2023-01-28T17:54:03;102725.41;;;23.40;25.95
42511;BME280;28141;51.120;17.114;2023-01-28T17:57:07;102731.29;;;23.37;25.44
42511;BME280;28141;51.120;17.114;2023-01-28T18:00:11;102739.28;;;23.32;25.68
42511;BME280;28141;51.120;17.114;2023-01-28T18:03:15;102745.18;;;23.28;25.76
42511;BME280;28141;51.120;17.114;2023-01-28T18:06:18;102750.88;;;23.27;25.76
42511;BME280;28141;51.120;17.114;2023-01-28T18:09:22;102761.77;;;23.28;25.49
42511;BME280;28141;51.120;17.114;2023-01-28T18:12:53;102764.52;;;23.28;25.60
42511;BME280;28141;51.120;17.114;2023-01-28T18:15:56;102767.52;;;23.19;25.75
42511;BME280;28141;51.120;17.114;2023-01-28T18:19:00;102765.61;;;23.19;25.55